createdAt,value
2022-12-26T00:02:16.112Z,35.90
2022-12-26T00:04:53.868Z,40.47
2022-12-26T00:07:28.236Z,39.67
2022-12-26T00:10:01.636Z,40.10
2022-12-26T00:12:39.999Z,36.53
2022-12-26T00:15:21.707Z,41.40
2022-12-26T00:17:54.226Z,34.53
2022-12-26T00:20:25.955Z,35.00
2022-12-26T00:23:07.283Z,39.23
2022-12-26T00:25:45.108Z,33.23
2022-12-26T00:28:18.271Z,37.03
2022-12-26T00:30:55.862Z,36.70
2022-12-26T00:33:25.200Z,36.00
2022-12-26T00:35:55.527Z,39.07
2022-12-26T00:38:25.238Z,37.13
2022-12-26T00:40:57.793Z,43.20
2022-12-26T00:43:31.708Z,38.10
2022-12-26T00:46:05.599Z,33.47
2022-12-26T00:48:38.219Z,38.57
2022-12-26T00:51:09.846Z,32.27
2022-12-26T00:53:50.535Z,32.30
2022-12-26T00:56:24.685Z,38.80
2022-12-26T00:58:52.775Z,40.80
2022-12-26T01:01:31.060Z,49.20
2022-12-26T01:04:10.044Z,42.07
2022-12-26T01:06:38.373Z,45.80
2022-12-26T01:09:09.939Z,51.10
2022-12-26T01:11:44.758Z,53.23
2022-12-26T01:14:16.887Z,52.90
2022-12-26T01:16:53.956Z,52.63
2022-12-26T01:19:23.752Z,53.07
2022-12-26T01:21:54.271Z,54.47
2022-12-26T01:24:26.236Z,58.97
2022-12-26T01:27:01.199Z,56.53
2022-12-26T01:29:34.634Z,57.27
2022-12-26T01:32:14.558Z,54.27
2022-12-26T01:34:43.565Z,55.93
2022-12-26T01:37:14.066Z,59.73
2022-12-26T01:39:43.920Z,59.23
2022-12-26T01:42:22.357Z,53.00
2022-12-26T01:45:16.385Z,52.53
2022-12-26T01:47:59.872Z,55.43
2022-12-26T01:50:38.823Z,48.67
2022-12-26T01:53:22.795Z,48.53
2022-12-26T01:55:55.091Z,45.47
2022-12-26T01:58:40.459Z,44.63
2022-12-26T02:01:12.574Z,46.80
2022-12-26T02:03:59.691Z,46.50
2022-12-26T02:06:30.787Z,49.60
2022-12-26T02:09:01.421Z,55.73
2022-12-26T02:11:34.753Z,48.47
2022-12-26T02:14:16.796Z,58.73
2022-12-26T02:17:04.100Z,51.23
2022-12-26T02:19:41.969Z,52.77
2022-12-26T02:22:39.265Z,49.67
2022-12-26T02:25:30.976Z,52.77
2022-12-26T02:28:34.693Z,47.63
2022-12-26T02:31:14.377Z,45.50
2022-12-26T02:33:54.212Z,48.77
2022-12-26T02:37:15.106Z,50.80
2022-12-26T02:40:02.936Z,46.83
2022-12-26T02:42:39.928Z,48.70
2022-12-26T02:45:35.080Z,45.23
2022-12-26T02:48:10.989Z,54.07
2022-12-26T02:51:09.204Z,47.30
2022-12-26T02:54:05.130Z,49.10
2022-12-26T02:56:56.031Z,53.90
2022-12-26T02:59:55.894Z,52.30
2022-12-26T03:02:51.665Z,48.80
2022-12-26T03:05:46.930Z,54.03
2022-12-26T03:08:44.865Z,47.77
2022-12-26T03:11:32.754Z,50.53
2022-12-26T03:14:15.689Z,45.77
2022-12-26T03:17:13.956Z,49.37
2022-12-26T03:19:58.356Z,49.43
2022-12-26T03:22:35.055Z,46.27
2022-12-26T03:25:24.896Z,49.87
2022-12-26T03:27:59.778Z,50.50
2022-12-26T03:30:48.336Z,54.00
2022-12-26T03:33:33.805Z,48.80
2022-12-26T03:36:12.199Z,47.17
2022-12-26T03:38:58.777Z,49.83
2022-12-26T03:41:48.700Z,44.33
2022-12-26T03:44:46.247Z,46.77
2022-12-26T03:47:43.825Z,48.10
2022-12-26T03:50:37.802Z,49.30
2022-12-26T03:53:30.423Z,44.97
2022-12-26T03:56:23.407Z,48.10
2022-12-26T03:59:19.846Z,43.60
2022-12-26T04:02:08.891Z,45.17
2022-12-26T04:04:59.378Z,40.60
2022-12-26T04:07:56.499Z,43.73
2022-12-26T04:10:47.843Z,40.93
2022-12-26T04:13:44.189Z,38.33
2022-12-26T04:16:39.137Z,41.47
2022-12-26T04:19:27.723Z,40.20
2022-12-26T04:22:22.851Z,41.93
2022-12-26T04:25:49.439Z,40.20
2022-12-26T04:28:42.859Z,41.40
2022-12-26T04:31:35.096Z,41.07
2022-12-26T04:34:29.359Z,44.37
2022-12-26T04:37:17.844Z,43.43
2022-12-26T04:40:09.697Z,43.23
2022-12-26T04:43:01.397Z,40.90
2022-12-26T04:45:54.965Z,42.77
2022-12-26T04:48:43.883Z,39.27
2022-12-26T04:51:24.856Z,43.30
2022-12-26T04:53:56.440Z,46.20
2022-12-26T04:56:28.107Z,39.30
2022-12-26T04:58:59.851Z,46.97
2022-12-26T05:01:51.428Z,42.30
2022-12-26T05:04:38.036Z,38.10
2022-12-26T05:07:33.361Z,40.23
2022-12-26T05:10:03.764Z,38.77
2022-12-26T05:12:35.964Z,37.77
2022-12-26T05:15:16.148Z,46.10
2022-12-26T05:18:15.902Z,42.83
2022-12-26T05:21:02.964Z,38.33
2022-12-26T05:23:56.922Z,42.43
2022-12-26T05:26:46.720Z,43.73
2022-12-26T05:29:23.231Z,42.37
2022-12-26T05:31:52.675Z,45.00
2022-12-26T05:34:21.513Z,45.47
2022-12-26T05:36:53.835Z,42.77
2022-12-26T05:39:23.590Z,38.23
2022-12-26T05:42:01.717Z,46.70
2022-12-26T05:44:32.412Z,42.80
2022-12-26T05:47:07.823Z,46.17
2022-12-26T05:49:48.787Z,43.60
2022-12-26T05:52:19.830Z,48.10
2022-12-26T05:54:56.322Z,43.67
2022-12-26T05:57:25.135Z,45.07
2022-12-26T05:59:56.599Z,38.60
2022-12-26T06:02:36.262Z,40.67
2022-12-26T06:05:21.964Z,38.73
2022-12-26T06:07:53.601Z,35.63
2022-12-26T06:10:26.867Z,35.70
2022-12-26T06:13:05.601Z,36.27
2022-12-26T06:15:36.085Z,36.17
2022-12-26T06:18:05.897Z,35.37
2022-12-26T06:20:41.823Z,37.03
2022-12-26T06:23:11.101Z,34.37
2022-12-26T06:25:42.015Z,29.77
2022-12-26T06:28:10.619Z,32.80
2022-12-26T06:30:42.143Z,33.17
2022-12-26T06:33:10.310Z,31.57
2022-12-26T06:35:42.479Z,32.30
2022-12-26T06:38:12.447Z,37.40
2022-12-26T06:40:41.566Z,39.70
2022-12-26T06:43:10.903Z,37.63
2022-12-26T06:45:41.170Z,34.50
2022-12-26T06:48:11.397Z,39.33
2022-12-26T06:50:44.548Z,33.70
2022-12-26T06:53:18.612Z,35.33
2022-12-26T06:55:49.198Z,42.17
2022-12-26T06:58:30.095Z,36.30
2022-12-26T07:01:09.991Z,43.00
2022-12-26T07:03:51.653Z,40.37
2022-12-26T07:06:32.035Z,46.67
2022-12-26T07:09:09.410Z,44.07
2022-12-26T07:11:50.136Z,41.90
2022-12-26T07:14:24.756Z,46.60
2022-12-26T07:16:53.901Z,42.00
2022-12-26T07:19:25.323Z,41.03
2022-12-26T07:22:07.444Z,50.07
2022-12-26T07:24:39.387Z,43.67
2022-12-26T07:27:08.867Z,41.07
2022-12-26T07:29:41.457Z,46.83
2022-12-26T07:32:17.704Z,43.93
2022-12-26T07:34:54.848Z,42.80
2022-12-26T07:37:34.036Z,44.13
2022-12-26T07:40:05.784Z,40.03
2022-12-26T07:42:40.264Z,41.70
2022-12-26T07:45:09.968Z,36.30
2022-12-26T07:47:39.316Z,33.80
2022-12-26T07:50:22.039Z,33.47
2022-12-26T07:52:52.756Z,33.60
2022-12-26T07:55:23.147Z,29.70
2022-12-26T07:57:53.048Z,27.23
2022-12-26T08:00:23.728Z,27.80
2022-12-26T08:02:53.553Z,24.60
2022-12-26T08:05:22.807Z,22.07
2022-12-26T08:08:03.143Z,27.03
2022-12-26T08:10:34.083Z,29.53
2022-12-26T08:13:08.056Z,29.90
2022-12-26T08:15:44.637Z,34.40
2022-12-26T08:18:15.679Z,30.50
2022-12-26T08:20:44.810Z,36.33
2022-12-26T08:23:26.552Z,31.60
2022-12-26T08:25:56.582Z,34.47
2022-12-26T08:28:28.119Z,32.13
2022-12-26T08:30:59.734Z,31.77
2022-12-26T08:33:31.058Z,33.30
2022-12-26T08:36:05.291Z,29.90
2022-12-26T08:38:36.977Z,30.23
2022-12-26T08:41:06.300Z,27.53
2022-12-26T08:46:29.730Z,33.87
2022-12-26T08:48:58.859Z,31.37
2022-12-26T08:51:27.892Z,30.73
2022-12-26T08:54:09.509Z,32.37
2022-12-26T08:56:40.522Z,28.60
2022-12-26T08:59:10.789Z,27.17
2022-12-26T09:01:42.386Z,28.73
2022-12-26T09:04:17.302Z,26.43
2022-12-26T09:06:59.780Z,27.33
2022-12-26T09:09:40.789Z,28.80
2022-12-26T09:12:23.758Z,29.63
2022-12-26T09:14:57.948Z,30.17
2022-12-26T09:17:29.793Z,31.47
2022-12-26T09:20:03.861Z,31.67
2022-12-26T09:22:50.446Z,37.43
2022-12-26T09:25:24.283Z,33.67
2022-12-26T09:27:58.844Z,37.73
2022-12-26T09:30:31.897Z,36.33
2022-12-26T09:33:06.356Z,39.87
2022-12-26T09:35:35.705Z,37.43
2022-12-26T09:38:06.190Z,35.20
2022-12-26T09:40:52.677Z,35.60
2022-12-26T09:43:28.475Z,36.77
2022-12-26T09:46:10.232Z,37.23
2022-12-26T09:48:50.121Z,33.60
2022-12-26T09:51:21.894Z,31.27
2022-12-26T09:53:58.041Z,29.80
2022-12-26T09:59:24.459Z,32.93
2022-12-26T10:01:56.515Z,28.27
2022-12-26T10:04:38.251Z,28.07
2022-12-26T10:07:16.866Z,25.63
2022-12-26T10:10:00.911Z,25.07
2022-12-26T10:12:48.023Z,25.93
2022-12-26T10:15:34.487Z,24.90
2022-12-26T10:18:16.761Z,26.33
2022-12-26T10:20:55.504Z,25.03
2022-12-26T10:23:35.985Z,27.53
2022-12-26T10:26:11.473Z,25.90
2022-12-26T10:28:46.864Z,26.73
2022-12-26T10:31:21.349Z,28.37
2022-12-26T10:33:55.017Z,28.90
2022-12-26T10:36:31.890Z,27.13
2022-12-26T10:39:02.535Z,28.60
2022-12-26T10:41:39.977Z,28.10
2022-12-26T10:44:25.695Z,28.80
2022-12-26T10:47:26.268Z,30.70
2022-12-26T10:49:59.943Z,27.20
2022-12-26T10:52:35.767Z,27.30
2022-12-26T10:55:29.234Z,33.57
2022-12-26T10:57:56.068Z,38.07
2022-12-26T11:00:29.036Z,34.00
2022-12-26T11:03:08.795Z,29.43
2022-12-26T11:08:43.217Z,29.83
2022-12-26T11:11:21.269Z,31.73
2022-12-26T11:14:02.581Z,28.37
2022-12-26T11:16:42.247Z,30.17
2022-12-26T11:19:28.356Z,28.83
2022-12-26T11:25:42.830Z,26.97
2022-12-26T11:28:26.046Z,24.53
2022-12-26T11:31:03.263Z,24.63
2022-12-26T11:33:44.598Z,31.07
2022-12-26T11:36:24.504Z,25.37
2022-12-26T11:39:05.820Z,29.67
2022-12-26T11:41:39.992Z,27.87
2022-12-26T11:44:29.335Z,31.60
2022-12-26T11:47:04.711Z,28.10
2022-12-26T11:49:47.952Z,31.83
2022-12-26T11:52:42.074Z,27.13
2022-12-26T11:55:30.677Z,26.50
2022-12-26T11:58:01.802Z,29.73
2022-12-26T12:00:32.502Z,27.97
2022-12-26T12:03:05.149Z,28.13
2022-12-26T12:05:47.609Z,27.57
2022-12-26T12:08:37.452Z,24.97
2022-12-26T12:11:18.510Z,24.70
2022-12-26T12:14:06.311Z,22.93
2022-12-26T12:16:53.669Z,25.80
2022-12-26T12:19:32.488Z,33.47
2022-12-26T12:22:23.459Z,32.20
2022-12-26T12:25:06.205Z,31.60
2022-12-26T12:27:40.547Z,26.63
2022-12-26T12:30:23.270Z,30.00
2022-12-26T12:33:29.893Z,25.90
2022-12-26T12:36:14.278Z,27.07
2022-12-26T12:38:57.236Z,29.77
2022-12-26T12:42:00.046Z,28.63
2022-12-26T12:44:59.196Z,26.67
2022-12-26T12:47:47.516Z,28.10
2022-12-26T12:50:27.174Z,30.20
2022-12-26T12:53:02.384Z,25.67
2022-12-26T12:55:42.611Z,26.43
2022-12-26T12:58:20.544Z,24.93
2022-12-26T13:01:00.869Z,30.23
2022-12-26T13:03:34.338Z,25.30
2022-12-26T13:06:08.241Z,25.37
2022-12-26T13:08:40.917Z,28.10
2022-12-26T13:11:29.135Z,28.23
2022-12-26T13:14:02.689Z,27.60
2022-12-26T13:16:37.401Z,28.27
2022-12-26T13:19:18.689Z,26.43
2022-12-26T13:21:54.756Z,23.87
2022-12-26T13:24:31.992Z,24.50
2022-12-26T13:27:11.544Z,25.53
2022-12-26T13:29:42.211Z,23.97
2022-12-26T13:32:24.031Z,23.80
2022-12-26T13:34:55.344Z,25.93
2022-12-26T13:38:01.155Z,25.20
2022-12-26T13:40:35.070Z,27.47
2022-12-26T13:43:38.528Z,28.27
2022-12-26T13:46:14.801Z,24.30
2022-12-26T13:49:02.960Z,25.57
2022-12-26T13:51:58.865Z,26.63
2022-12-26T13:54:30.013Z,26.67
2022-12-26T13:57:26.811Z,27.13
2022-12-26T14:00:20.486Z,24.70
2022-12-26T14:03:24.178Z,24.80
2022-12-26T14:06:27.780Z,27.33
2022-12-26T14:09:22.564Z,23.03
2022-12-26T14:12:15.921Z,24.67
2022-12-26T14:14:57.709Z,24.63
2022-12-26T14:17:45.276Z,25.70
2022-12-26T14:20:54.319Z,22.50
2022-12-26T14:23:38.174Z,26.10
2022-12-26T14:26:18.715Z,24.37
2022-12-26T14:28:57.578Z,26.90
2022-12-26T14:31:44.419Z,23.90
2022-12-26T14:35:10.595Z,27.50
2022-12-26T14:37:52.710Z,23.77
2022-12-26T14:40:31.109Z,24.93
2022-12-26T14:43:10.432Z,26.37
2022-12-26T14:45:46.577Z,26.33
2022-12-26T14:48:51.492Z,21.93
2022-12-26T14:51:51.843Z,25.93
2022-12-26T14:54:57.763Z,25.80
2022-12-26T14:57:51.039Z,26.33
2022-12-26T15:00:37.771Z,30.63
2022-12-26T15:07:04.033Z,33.07
2022-12-26T15:10:17.032Z,27.03
2022-12-26T15:13:24.724Z,24.30
2022-12-26T15:16:22.975Z,25.27
2022-12-26T15:19:40.112Z,26.90
2022-12-26T15:22:46.329Z,30.67
2022-12-26T15:26:02.942Z,26.90
2022-12-26T15:29:11.506Z,30.87
2022-12-26T15:31:50.643Z,27.80
2022-12-26T15:34:59.892Z,29.23
2022-12-26T15:37:57.605Z,25.70
2022-12-26T15:40:26.984Z,24.80
2022-12-26T15:43:20.258Z,25.97
2022-12-26T15:46:02.564Z,31.33
2022-12-26T15:49:14.962Z,28.50
2022-12-26T15:51:56.145Z,27.23
2022-12-26T15:54:45.586Z,35.10
2022-12-26T15:57:22.559Z,33.33
2022-12-26T16:00:13.035Z,35.20
2022-12-26T16:02:49.667Z,31.80
2022-12-26T16:05:51.936Z,28.13
2022-12-26T16:08:49.775Z,29.27
2022-12-26T16:11:24.282Z,25.20
2022-12-26T16:14:09.845Z,49.27
2022-12-26T16:16:46.799Z,35.40
2022-12-26T16:19:28.615Z,43.47
2022-12-26T16:22:22.757Z,35.83
2022-12-26T16:24:52.729Z,29.37
2022-12-26T16:27:23.790Z,29.03
2022-12-26T16:29:56.585Z,29.50
2022-12-26T16:32:31.150Z,32.50
2022-12-26T16:35:11.301Z,28.80
2022-12-26T16:37:45.889Z,27.67
2022-12-26T16:40:25.454Z,48.23
2022-12-26T16:43:13.801Z,46.37
2022-12-26T16:45:46.045Z,69.70
2022-12-26T16:48:32.494Z,50.00
2022-12-26T16:51:10.675Z,41.50
2022-12-26T16:53:50.968Z,39.70
2022-12-26T16:56:28.677Z,46.90
2022-12-26T16:59:07.249Z,49.70
2022-12-26T17:01:39.305Z,45.93
2022-12-26T17:04:21.294Z,47.07
2022-12-26T17:06:53.267Z,39.00
2022-12-26T17:09:46.248Z,40.43
2022-12-26T17:12:26.966Z,39.57
2022-12-26T17:14:57.249Z,34.40
2022-12-26T17:17:36.067Z,35.80
2022-12-26T17:20:40.868Z,36.13
2022-12-26T17:23:39.094Z,32.90
2022-12-26T17:26:31.639Z,34.23
2022-12-26T17:29:02.182Z,30.83
2022-12-26T17:31:35.955Z,34.17
2022-12-26T17:34:24.604Z,32.90
2022-12-26T17:39:59.056Z,32.60
2022-12-26T17:42:47.220Z,30.63
2022-12-26T17:45:50.923Z,30.17
2022-12-26T17:48:22.656Z,29.50
2022-12-26T17:51:02.854Z,30.57
2022-12-26T17:53:36.595Z,30.80
2022-12-26T17:56:08.813Z,31.63
2022-12-26T17:58:41.775Z,31.33
2022-12-26T18:01:22.722Z,31.13
2022-12-26T18:03:52.651Z,33.20
2022-12-26T18:06:24.368Z,31.67
2022-12-26T18:08:55.380Z,29.57
2022-12-26T18:11:27.284Z,28.80
2022-12-26T18:13:57.067Z,28.17
2022-12-26T18:16:32.761Z,25.70
2022-12-26T18:19:01.123Z,18.53
2022-12-26T18:21:33.606Z,17.00
2022-12-26T18:24:05.419Z,19.67
2022-12-26T18:26:39.636Z,23.63
2022-12-26T18:29:12.704Z,15.47
2022-12-26T18:31:43.637Z,14.37
2022-12-26T18:34:20.579Z,17.43
2022-12-26T18:36:50.251Z,15.20
2022-12-26T18:39:19.306Z,15.07
2022-12-26T18:41:51.821Z,10.90
2022-12-26T18:44:25.786Z,8.90
2022-12-26T18:46:57.312Z,7.90
2022-12-26T18:49:29.042Z,2.77
2022-12-26T18:52:03.664Z,2.20
2022-12-26T18:54:37.449Z,1.93
2022-12-26T18:57:17.187Z,1.53
2022-12-26T18:59:56.076Z,1.53
2022-12-26T19:02:33.928Z,1.20
2022-12-26T19:05:04.417Z,1.70
2022-12-26T19:07:34.399Z,1.33
2022-12-26T19:10:06.746Z,0.90
2022-12-26T19:12:46.801Z,1.53
2022-12-26T19:15:26.957Z,1.40
2022-12-26T19:18:02.128Z,1.13
2022-12-26T19:20:44.073Z,1.20
2022-12-26T19:23:16.583Z,1.03
2022-12-26T19:25:51.736Z,1.87
2022-12-26T19:28:31.960Z,2.90
2022-12-26T19:31:10.005Z,0.87
2022-12-26T19:33:54.322Z,1.53
2022-12-26T19:36:25.535Z,1.77
2022-12-26T19:39:04.387Z,1.00
2022-12-26T19:41:38.341Z,1.43
2022-12-26T19:44:13.441Z,0.80
2022-12-26T19:47:11.852Z,1.40
2022-12-26T19:49:44.432Z,1.60
2022-12-26T19:52:14.281Z,1.03
2022-12-26T19:54:48.958Z,1.80
2022-12-26T19:57:34.184Z,1.20
2022-12-26T20:00:06.049Z,0.77
2022-12-26T20:02:56.487Z,1.57
2022-12-26T20:05:33.473Z,0.77
2022-12-26T20:08:15.208Z,1.40
2022-12-26T20:10:46.533Z,1.30
2022-12-26T20:13:17.548Z,1.93
2022-12-26T20:15:49.998Z,1.37
2022-12-26T20:18:22.868Z,0.63
2022-12-26T20:21:03.420Z,0.57
2022-12-26T20:23:34.635Z,0.80
2022-12-26T20:26:11.090Z,0.80
2022-12-26T20:28:49.053Z,0.77
2022-12-26T20:31:20.553Z,1.20
2022-12-26T20:34:02.143Z,0.70
2022-12-26T20:36:35.792Z,0.73
2022-12-26T20:39:07.348Z,1.57
2022-12-26T20:41:45.589Z,0.50
2022-12-26T20:44:21.033Z,0.97
2022-12-26T20:47:03.951Z,0.93
2022-12-26T20:49:40.251Z,0.50
2022-12-26T20:52:18.344Z,0.70
2022-12-26T20:54:54.711Z,0.73
2022-12-26T20:57:26.283Z,1.10
2022-12-26T20:59:58.872Z,0.97
2022-12-26T21:02:45.503Z,0.70
2022-12-26T21:05:24.484Z,0.70
2022-12-26T21:07:53.554Z,0.87
2022-12-26T21:10:23.065Z,0.80
2022-12-26T21:13:01.786Z,0.50
2022-12-26T21:15:39.545Z,0.60
2022-12-26T21:18:12.687Z,0.50
2022-12-26T21:20:42.495Z,1.87
2022-12-26T21:23:15.759Z,3.07
2022-12-26T21:25:48.082Z,1.73
2022-12-26T21:28:18.998Z,0.70
2022-12-26T21:30:57.626Z,0.70
2022-12-26T21:33:37.821Z,0.70
2022-12-26T21:36:25.923Z,1.03
2022-12-26T21:39:10.569Z,1.03
2022-12-26T21:41:54.175Z,0.77
2022-12-26T21:44:31.546Z,0.80
2022-12-26T21:47:02.389Z,0.50
2022-12-26T21:49:34.580Z,1.00
2022-12-26T21:52:24.740Z,0.80
2022-12-26T21:55:17.444Z,0.50
2022-12-26T21:57:55.537Z,0.50
2022-12-26T22:00:33.398Z,1.17
2022-12-26T22:03:21.184Z,0.57
2022-12-26T22:05:56.207Z,0.83
2022-12-26T22:08:33.459Z,1.23
2022-12-26T22:11:22.117Z,0.60
2022-12-26T22:13:51.073Z,0.40
2022-12-26T22:16:22.694Z,0.60
2022-12-26T22:18:59.747Z,0.57
2022-12-26T22:21:30.078Z,0.93
2022-12-26T22:24:05.046Z,0.50
2022-12-26T22:26:42.261Z,0.40
2022-12-26T22:29:10.626Z,0.43
2022-12-26T22:31:40.642Z,0.43
2022-12-26T22:34:16.454Z,0.50
2022-12-26T22:39:33.408Z,0.40
2022-12-26T22:42:13.501Z,0.60
2022-12-26T22:44:51.595Z,0.73
2022-12-26T22:47:32.864Z,0.50
2022-12-26T22:50:01.345Z,0.30
2022-12-26T22:52:43.072Z,0.60
2022-12-26T22:55:24.814Z,1.20
2022-12-26T22:58:02.311Z,0.60
2022-12-26T23:00:39.860Z,0.50
2022-12-26T23:03:24.187Z,0.50
2022-12-26T23:05:58.856Z,0.67
2022-12-26T23:08:33.722Z,1.07
2022-12-26T23:11:11.225Z,0.40
2022-12-26T23:13:43.995Z,0.50
2022-12-26T23:16:21.054Z,0.43
2022-12-26T23:19:15.947Z,0.60
2022-12-26T23:21:48.679Z,0.40
2022-12-26T23:24:21.333Z,0.50
2022-12-26T23:26:55.327Z,1.30
2022-12-26T23:29:45.737Z,0.63
2022-12-26T23:32:26.982Z,0.53
2022-12-26T23:34:56.371Z,0.70
2022-12-26T23:37:34.763Z,0.60
2022-12-26T23:40:12.503Z,0.87
2022-12-26T23:42:46.577Z,0.50
2022-12-26T23:45:17.488Z,0.40
2022-12-26T23:47:49.159Z,0.63
2022-12-26T23:50:29.595Z,0.70
2022-12-26T23:53:06.014Z,0.50
2022-12-26T23:55:49.116Z,0.60
2022-12-26T23:58:20.639Z,0.97
